createdAt,value
2018-07-22T10:56:21.365Z,28.63
2018-07-22T10:58:49.645Z,28.91
2018-07-22T11:01:17.929Z,28.82
2018-07-22T11:03:46.247Z,28.94
2018-07-22T11:06:14.502Z,28.86
2018-07-22T11:08:43.828Z,29.30
2018-07-22T11:11:13.125Z,29.34
2018-07-22T11:13:41.406Z,29.57
2018-07-22T11:16:10.687Z,29.74
2018-07-22T11:18:39.017Z,30.03
2018-07-22T11:21:07.340Z,29.90
2018-07-22T11:23:35.677Z,30.08
2018-07-22T11:26:03.940Z,29.59
2018-07-22T11:28:32.405Z,29.27
2018-07-22T11:31:00.622Z,29.60
2018-07-22T11:33:28.894Z,29.42
2018-07-22T11:35:57.206Z,29.43
2018-07-22T11:38:25.434Z,29.91
2018-07-22T11:40:53.716Z,29.73
2018-07-22T11:43:23.966Z,30.01
2018-07-22T11:45:52.248Z,29.78
2018-07-22T11:48:20.541Z,30.11
2018-07-22T11:50:48.920Z,30.05
2018-07-22T11:53:17.096Z,29.98
2018-07-22T11:55:46.392Z,30.26
2018-07-22T11:58:14.650Z,30.49
2018-07-22T12:00:47.196Z,30.09
2018-07-22T12:03:15.941Z,29.60
2018-07-22T12:05:44.321Z,29.84
2018-07-22T12:08:12.569Z,29.87
2018-07-22T12:10:40.842Z,30.27
2018-07-22T12:13:09.222Z,29.73
2018-07-22T12:15:37.492Z,29.77
2018-07-22T12:18:05.779Z,29.81
2018-07-22T12:20:34.049Z,29.81
2018-07-22T12:23:02.326Z,29.47
2018-07-22T12:25:30.597Z,29.79
2018-07-22T12:27:58.847Z,30.20
2018-07-22T12:30:27.133Z,30.24
2018-07-22T12:32:55.385Z,30.02
2018-07-22T12:35:23.641Z,29.75
2018-07-22T12:37:51.909Z,29.56
2018-07-22T12:40:20.201Z,30.32
2018-07-22T12:42:53.277Z,29.97
2018-07-22T12:45:21.513Z,30.34
2018-07-22T12:47:49.831Z,30.66
2018-07-22T12:50:18.076Z,30.33
2018-07-22T12:52:46.363Z,29.91
2018-07-22T12:55:14.613Z,30.44
2018-07-22T12:57:42.885Z,30.72
2018-07-22T13:00:11.153Z,30.55
2018-07-22T13:02:39.433Z,30.66
2018-07-22T13:05:08.767Z,31.05
2018-07-22T13:07:37.049Z,31.76
2018-07-22T13:10:06.553Z,32.20
2018-07-22T13:12:34.938Z,31.00
2018-07-22T13:15:03.295Z,30.29
2018-07-22T13:17:31.616Z,30.33
2018-07-22T13:20:00.881Z,30.05
2018-07-22T13:22:29.433Z,30.27
2018-07-22T13:24:57.975Z,29.88
2018-07-22T13:27:26.579Z,29.77
2018-07-22T13:29:55.388Z,29.67
2018-07-22T13:32:23.665Z,29.17
2018-07-22T13:34:53.025Z,29.49
2018-07-22T13:37:21.405Z,29.56
2018-07-22T13:39:49.692Z,29.44
2018-07-22T13:42:18.265Z,29.59
2018-07-22T13:44:46.579Z,29.91
2018-07-22T13:47:14.875Z,30.13
2018-07-22T13:49:43.328Z,30.98
2018-07-22T13:52:11.589Z,30.89
2018-07-22T13:54:41.157Z,32.50
2018-07-22T13:57:09.722Z,33.92
2018-07-22T13:59:38.004Z,33.87
2018-07-22T14:02:06.681Z,32.92
2018-07-22T14:04:34.952Z,32.83
2018-07-22T14:07:03.214Z,33.65
2018-07-22T14:09:31.552Z,34.82
2018-07-22T14:11:59.883Z,36.99
2018-07-22T14:14:28.597Z,36.83
2018-07-22T14:16:56.857Z,37.62
2018-07-22T14:19:25.174Z,38.25
2018-07-22T14:21:53.430Z,39.52
2018-07-22T14:24:21.725Z,38.39
2018-07-22T14:26:51.021Z,36.87
2018-07-22T14:29:19.265Z,38.41
2018-07-22T14:31:47.562Z,39.00
2018-07-22T14:34:15.816Z,36.95
2018-07-22T14:36:45.129Z,36.40
2018-07-22T14:39:13.832Z,36.89
2018-07-22T14:41:42.744Z,37.20
2018-07-22T14:44:11.007Z,38.54
2018-07-22T14:46:39.308Z,39.56
2018-07-22T14:49:08.637Z,36.86
2018-07-22T14:51:36.913Z,36.50
2018-07-22T14:54:05.252Z,39.64
2018-07-22T14:56:33.536Z,39.42
2018-07-22T14:59:01.802Z,40.13
2018-07-22T15:01:30.201Z,38.39
2018-07-22T15:03:58.460Z,37.22
2018-07-22T15:06:26.781Z,36.60
2018-07-22T15:08:55.056Z,37.48
2018-07-22T15:11:23.354Z,37.56
2018-07-22T15:13:51.636Z,35.75
2018-07-22T15:16:19.957Z,35.98
2018-07-22T15:18:48.212Z,35.25
2018-07-22T15:21:16.469Z,35.39
2018-07-22T15:23:44.773Z,37.29
2018-07-22T15:26:13.041Z,37.01
2018-07-22T15:28:41.340Z,39.01
2018-07-22T15:31:09.630Z,41.63
2018-07-22T15:33:38.981Z,39.99
2018-07-22T15:36:07.233Z,37.81
2018-07-22T15:38:35.525Z,35.48
2018-07-22T15:41:03.863Z,35.66
2018-07-22T15:43:32.377Z,36.47
2018-07-22T15:46:00.646Z,36.51
2018-07-22T15:48:28.934Z,36.25
2018-07-22T15:50:57.188Z,32.91
2018-07-22T15:53:25.481Z,34.59
2018-07-22T15:55:53.827Z,34.25
2018-07-22T15:58:22.030Z,34.53
2018-07-22T16:00:50.517Z,36.18
2018-07-22T16:03:18.807Z,35.21
2018-07-22T16:05:47.073Z,36.64
2018-07-22T16:08:17.405Z,36.88
2018-07-22T16:10:45.677Z,33.78
2018-07-22T16:13:14.988Z,32.67
2018-07-22T16:15:44.385Z,33.28
2018-07-22T16:18:12.641Z,33.95
2018-07-22T16:20:41.006Z,35.16
2018-07-22T16:23:09.296Z,33.88
2018-07-22T16:28:36.507Z,33.62
2018-07-22T16:31:04.765Z,35.78
2018-07-22T16:33:33.098Z,37.06
2018-07-22T16:36:01.425Z,36.20
2018-07-22T16:38:29.736Z,34.25
2018-07-22T16:40:58.033Z,31.58
2018-07-22T16:43:26.285Z,29.20
2018-07-22T16:45:54.584Z,31.46
2018-07-22T16:48:23.884Z,33.51
2018-07-22T16:50:52.193Z,34.25
2018-07-22T16:53:20.695Z,33.49
2018-07-22T16:55:49.013Z,32.14
2018-07-22T16:58:17.277Z,31.30
2018-07-22T17:00:46.988Z,31.82
2018-07-22T17:03:15.317Z,33.72
2018-07-22T17:05:43.605Z,33.52
2018-07-22T17:08:11.957Z,35.19
2018-07-22T17:10:41.357Z,34.36
2018-07-22T17:13:09.681Z,33.42
2018-07-22T17:15:38.545Z,32.85
2018-07-22T17:18:06.813Z,31.90
2018-07-22T17:20:35.177Z,31.40
2018-07-22T17:23:03.592Z,31.31
2018-07-22T17:25:31.939Z,30.41
2018-07-22T17:28:00.252Z,31.05
2018-07-22T17:30:28.643Z,28.27
2018-07-22T17:32:56.910Z,26.97
2018-07-22T17:35:26.170Z,25.81
2018-07-22T17:37:54.469Z,25.50
2018-07-22T17:40:22.725Z,25.45
2018-07-22T17:42:51.030Z,24.57
2018-07-22T17:45:19.373Z,24.19
2018-07-22T17:47:47.677Z,24.04
2018-07-22T17:50:16.133Z,23.96
2018-07-22T17:52:44.432Z,23.87
2018-07-22T17:55:12.801Z,23.54
2018-07-22T17:57:41.165Z,23.44
2018-07-22T18:00:09.699Z,23.56
2018-07-22T18:02:40.661Z,23.37
2018-07-22T18:05:08.989Z,23.36
2018-07-22T18:07:37.340Z,23.34
2018-07-22T18:10:06.709Z,23.18
2018-07-22T18:12:35.126Z,23.17
2018-07-22T18:15:03.496Z,23.19
2018-07-22T18:17:31.757Z,23.02
2018-07-22T18:20:00.028Z,23.01
2018-07-22T18:22:28.316Z,23.01
2018-07-22T18:24:56.614Z,22.78
2018-07-22T18:27:24.848Z,22.91
2018-07-22T18:29:53.128Z,22.79
2018-07-22T18:32:21.436Z,22.81
2018-07-22T18:34:50.763Z,22.71
2018-07-22T18:37:19.156Z,22.72
2018-07-22T18:39:47.301Z,22.80
2018-07-22T18:42:15.589Z,22.64
2018-07-22T18:44:43.877Z,22.59
2018-07-22T18:47:13.133Z,22.60
2018-07-22T18:49:41.480Z,22.72
2018-07-22T18:52:09.715Z,22.58
2018-07-22T18:54:38.013Z,22.64
2018-07-22T18:57:07.266Z,22.52
2018-07-22T18:59:35.542Z,22.40
2018-07-22T19:02:03.825Z,22.16
2018-07-22T19:04:32.063Z,22.17
2018-07-22T19:07:00.344Z,21.97
2018-07-22T19:09:28.595Z,22.17
2018-07-22T19:11:57.889Z,22.04
2018-07-22T19:14:26.136Z,21.85
2018-07-22T19:16:54.402Z,21.68
2018-07-22T19:19:22.817Z,21.48
2018-07-22T19:21:51.109Z,21.54
2018-07-22T19:24:19.384Z,21.41
2018-07-22T19:26:47.674Z,21.35
2018-07-22T19:29:17.011Z,21.23
2018-07-22T19:31:45.285Z,21.22
2018-07-22T19:34:13.525Z,21.20
2018-07-22T19:36:41.806Z,21.16
2018-07-22T19:39:10.669Z,21.02
2018-07-22T19:41:40.058Z,21.04
2018-07-22T19:44:08.745Z,21.07
2018-07-22T19:46:37.215Z,21.07
2018-07-22T19:49:09.686Z,21.00
2018-07-22T19:51:38.157Z,20.89
2018-07-22T19:54:06.405Z,20.83
2018-07-22T19:56:34.705Z,20.76
2018-07-22T19:59:02.969Z,20.56
2018-07-22T20:01:32.949Z,20.56
2018-07-22T20:04:01.225Z,20.48
2018-07-22T20:06:29.489Z,20.44
2018-07-22T20:08:57.783Z,20.33
2018-07-22T20:11:27.017Z,20.31
2018-07-22T20:13:56.442Z,20.25
2018-07-22T20:16:24.705Z,20.32
2018-07-22T20:18:52.986Z,20.33
2018-07-22T20:21:21.228Z,20.33
2018-07-22T20:23:49.557Z,20.22
2018-07-22T20:26:17.805Z,20.28
2018-07-22T20:28:47.109Z,20.22
2018-07-22T20:31:16.388Z,19.96
2018-07-22T20:33:46.071Z,19.88
2018-07-22T20:36:14.489Z,19.99
2018-07-22T20:38:42.785Z,20.01
2018-07-22T20:41:11.074Z,19.99
2018-07-22T20:43:39.341Z,19.99
2018-07-22T20:46:08.580Z,19.81
2018-07-22T20:48:36.925Z,19.83
2018-07-22T20:51:05.245Z,19.79
2018-07-22T20:53:34.565Z,19.70
2018-07-22T20:56:02.873Z,19.61
2018-07-22T20:58:31.117Z,19.59
2018-07-22T21:01:00.382Z,19.66
2018-07-22T21:03:29.048Z,19.52
2018-07-22T21:05:57.325Z,19.40
2018-07-22T21:08:25.594Z,19.44
2018-07-22T21:10:53.893Z,19.38
2018-07-22T21:13:23.573Z,19.41
2018-07-22T21:15:52.077Z,19.41
2018-07-22T21:18:20.352Z,19.35
2018-07-22T21:20:48.649Z,19.34
2018-07-22T21:23:16.921Z,19.32
2018-07-22T21:25:45.236Z,19.24
2018-07-22T21:28:13.576Z,19.20
2018-07-22T21:30:41.877Z,19.17
2018-07-22T21:33:10.145Z,19.16
2018-07-22T21:35:38.436Z,19.05
2018-07-22T21:38:07.957Z,19.20
2018-07-22T21:40:36.228Z,19.26
2018-07-22T21:43:04.521Z,19.33
2018-07-22T21:45:32.813Z,19.23
2018-07-22T21:48:01.137Z,19.40
2018-07-22T21:50:29.405Z,19.21
2018-07-22T21:52:57.689Z,19.09
2018-07-22T21:55:25.964Z,19.06
2018-07-22T21:57:54.281Z,19.14
2018-07-22T22:00:31.637Z,19.01
2018-07-22T22:03:01.205Z,18.94
2018-07-22T22:05:29.481Z,18.95
2018-07-22T22:07:57.777Z,18.92
2018-07-22T22:10:26.517Z,18.89
2018-07-22T22:12:55.341Z,18.84
2018-07-22T22:15:29.429Z,18.74
2018-07-22T22:17:59.005Z,18.73
2018-07-22T22:20:27.837Z,18.87
2018-07-22T22:22:56.633Z,18.95
2018-07-22T22:25:26.019Z,18.85
2018-07-22T22:27:54.364Z,18.73
2018-07-22T22:30:22.673Z,18.87
2018-07-22T22:32:50.932Z,18.90
2018-07-22T22:35:20.234Z,18.78
2018-07-22T22:37:48.535Z,18.70
2018-07-22T22:40:16.931Z,18.65
2018-07-22T22:42:46.190Z,18.56
2018-07-22T22:45:15.229Z,18.74
2018-07-22T22:47:43.517Z,18.77
2018-07-22T22:50:11.839Z,18.71
2018-07-22T22:52:40.109Z,18.69
2018-07-22T22:55:08.426Z,18.65
2018-07-22T22:57:36.717Z,18.70
2018-07-22T23:00:06.714Z,18.63
2018-07-22T23:02:37.837Z,18.61
2018-07-22T23:05:08.008Z,18.52
2018-07-22T23:07:36.248Z,18.47
2018-07-22T23:10:05.409Z,18.58
2018-07-22T23:12:33.696Z,18.63
2018-07-22T23:15:02.012Z,18.50
2018-07-22T23:17:31.437Z,18.47
2018-07-22T23:19:59.728Z,18.48
2018-07-22T23:22:27.997Z,18.48
2018-07-22T23:24:56.266Z,18.43
2018-07-22T23:27:24.543Z,18.33
2018-07-22T23:29:52.791Z,18.14
2018-07-22T23:32:21.063Z,18.27
2018-07-22T23:34:50.377Z,18.09
2018-07-22T23:37:18.666Z,18.14
2018-07-22T23:39:46.924Z,18.04
2018-07-22T23:42:15.193Z,18.05
2018-07-22T23:44:43.446Z,18.02
2018-07-22T23:47:11.725Z,18.21
2018-07-22T23:49:39.972Z,18.16
2018-07-22T23:52:08.267Z,18.12
2018-07-22T23:54:36.522Z,18.09
2018-07-22T23:57:04.929Z,18.05
2018-07-22T23:59:33.185Z,17.99
